sensor_id;sensor_type;location;lat;lon;timestamp;P1;durP1;ratioP1;P2;durP2;ratioP2
19589;SDS011;12231;42.782;23.388;2023-02-20T00:00:52;11.40;;;7.30;;
19589;SDS011;12231;42.782;23.388;2023-02-20T00:03:17;10.80;;;6.70;;
19589;SDS011;12231;42.782;23.388;2023-02-20T00:05:43;9.37;;;6.67;;
19589;SDS011;12231;42.782;23.388;2023-02-20T00:08:08;9.83;;;6.90;;
19589;SDS011;12231;42.782;23.388;2023-02-20T00:10:34;13.37;;;7.30;;
19589;SDS011;12231;42.782;23.388;2023-02-20T00:13:00;11.73;;;6.70;;
19589;SDS011;12231;42.782;23.388;2023-02-20T00:15:25;11.73;;;7.53;;
19589;SDS011;12231;42.782;23.388;2023-02-20T00:17:50;11.70;;;7.17;;
19589;SDS011;12231;42.782;23.388;2023-02-20T00:20:17;9.07;;;7.30;;
19589;SDS011;12231;42.782;23.388;2023-02-20T00:22:45;9.90;;;6.43;;
19589;SDS011;12231;42.782;23.388;2023-02-20T00:25:11;12.10;;;7.27;;
19589;SDS011;12231;42.782;23.388;2023-02-20T00:27:37;8.80;;;6.47;;
19589;SDS011;12231;42.782;23.388;2023-02-20T00:30:03;12.03;;;7.03;;
19589;SDS011;12231;42.782;23.388;2023-02-20T00:32:29;10.63;;;6.80;;
19589;SDS011;12231;42.782;23.388;2023-02-20T00:34:54;13.57;;;6.93;;
19589;SDS011;12231;42.782;23.388;2023-02-20T00:37:20;12.47;;;7.53;;
19589;SDS011;12231;42.782;23.388;2023-02-20T00:39:45;10.73;;;6.30;;
19589;SDS011;12231;42.782;23.388;2023-02-20T00:42:11;11.40;;;7.10;;
19589;SDS011;12231;42.782;23.388;2023-02-20T00:44:36;13.83;;;6.70;;
19589;SDS011;12231;42.782;23.388;2023-02-20T00:47:01;10.53;;;7.07;;
19589;SDS011;12231;42.782;23.388;2023-02-20T00:49:27;12.37;;;7.40;;
19589;SDS011;12231;42.782;23.388;2023-02-20T00:51:52;11.07;;;6.67;;
19589;SDS011;12231;42.782;23.388;2023-02-20T00:54:18;12.33;;;7.10;;
19589;SDS011;12231;42.782;23.388;2023-02-20T00:56:44;12.83;;;7.53;;
19589;SDS011;12231;42.782;23.388;2023-02-20T00:59:09;11.70;;;7.50;;
19589;SDS011;12231;42.782;23.388;2023-02-20T01:01:35;12.40;;;8.10;;
19589;SDS011;12231;42.782;23.388;2023-02-20T01:04:00;12.87;;;7.77;;
19589;SDS011;12231;42.782;23.388;2023-02-20T01:06:25;14.10;;;7.97;;
19589;SDS011;12231;42.782;23.388;2023-02-20T01:08:51;11.93;;;7.30;;
19589;SDS011;12231;42.782;23.388;2023-02-20T01:11:16;15.17;;;8.37;;
19589;SDS011;12231;42.782;23.388;2023-02-20T01:13:42;14.43;;;8.63;;
19589;SDS011;12231;42.782;23.388;2023-02-20T01:16:07;12.87;;;8.20;;
19589;SDS011;12231;42.782;23.388;2023-02-20T01:18:33;13.83;;;8.27;;
19589;SDS011;12231;42.782;23.388;2023-02-20T01:20:59;14.47;;;8.67;;
19589;SDS011;12231;42.782;23.388;2023-02-20T01:23:24;16.00;;;8.20;;
19589;SDS011;12231;42.782;23.388;2023-02-20T01:25:50;15.47;;;8.30;;
19589;SDS011;12231;42.782;23.388;2023-02-20T01:28:15;12.77;;;8.60;;
19589;SDS011;12231;42.782;23.388;2023-02-20T01:30:40;13.07;;;7.87;;
19589;SDS011;12231;42.782;23.388;2023-02-20T01:33:06;14.33;;;8.40;;
19589;SDS011;12231;42.782;23.388;2023-02-20T01:35:31;13.57;;;8.50;;
19589;SDS011;12231;42.782;23.388;2023-02-20T01:37:57;15.27;;;8.70;;
19589;SDS011;12231;42.782;23.388;2023-02-20T01:40:24;16.43;;;9.10;;
19589;SDS011;12231;42.782;23.388;2023-02-20T01:42:51;14.70;;;8.03;;
19589;SDS011;12231;42.782;23.388;2023-02-20T01:47:45;15.13;;;8.73;;
19589;SDS011;12231;42.782;23.388;2023-02-20T01:50:11;17.80;;;9.77;;
19589;SDS011;12231;42.782;23.388;2023-02-20T01:52:37;14.00;;;9.13;;
19589;SDS011;12231;42.782;23.388;2023-02-20T01:55:05;13.93;;;8.77;;
19589;SDS011;12231;42.782;23.388;2023-02-20T01:57:35;16.17;;;9.07;;
19589;SDS011;12231;42.782;23.388;2023-02-20T02:00:06;16.37;;;9.70;;
19589;SDS011;12231;42.782;23.388;2023-02-20T02:02:35;15.03;;;9.60;;
19589;SDS011;12231;42.782;23.388;2023-02-20T02:05:03;15.37;;;9.27;;
19589;SDS011;12231;42.782;23.388;2023-02-20T02:07:30;15.03;;;9.07;;
19589;SDS011;12231;42.782;23.388;2023-02-20T02:09:59;13.83;;;8.07;;
19589;SDS011;12231;42.782;23.388;2023-02-20T02:12:28;11.60;;;7.60;;
19589;SDS011;12231;42.782;23.388;2023-02-20T02:14:54;13.57;;;8.03;;
19589;SDS011;12231;42.782;23.388;2023-02-20T02:23:13;8.67;;;5.90;;
19589;SDS011;12231;42.782;23.388;2023-02-20T02:25:52;15.77;;;8.60;;
19589;SDS011;12231;42.782;23.388;2023-02-20T02:40:49;7.10;;;5.43;;
19589;SDS011;12231;42.782;23.388;2023-02-20T02:46:41;9.30;;;5.60;;
19589;SDS011;12231;42.782;23.388;2023-02-20T02:48:58;6.73;;;5.10;;
19589;SDS011;12231;42.782;23.388;2023-02-20T02:51:33;9.37;;;4.60;;
19589;SDS011;12231;42.782;23.388;2023-02-20T02:54:09;6.43;;;4.37;;
19589;SDS011;12231;42.782;23.388;2023-02-20T02:56:40;7.53;;;4.57;;
19589;SDS011;12231;42.782;23.388;2023-02-20T02:59:10;7.23;;;4.67;;
19589;SDS011;12231;42.782;23.388;2023-02-20T03:01:43;6.77;;;4.47;;
19589;SDS011;12231;42.782;23.388;2023-02-20T03:04:21;6.13;;;4.00;;
19589;SDS011;12231;42.782;23.388;2023-02-20T03:06:56;7.00;;;4.53;;
19589;SDS011;12231;42.782;23.388;2023-02-20T03:09:30;7.03;;;4.20;;
19589;SDS011;12231;42.782;23.388;2023-02-20T03:12:00;6.53;;;4.53;;
19589;SDS011;12231;42.782;23.388;2023-02-20T03:14:32;8.60;;;4.57;;
19589;SDS011;12231;42.782;23.388;2023-02-20T03:19:57;6.80;;;3.77;;
19589;SDS011;12231;42.782;23.388;2023-02-20T03:22:31;5.00;;;4.03;;
19589;SDS011;12231;42.782;23.388;2023-02-20T03:24:59;6.20;;;3.97;;
19589;SDS011;12231;42.782;23.388;2023-02-20T03:27:58;5.67;;;4.03;;
19589;SDS011;12231;42.782;23.388;2023-02-20T03:30:29;6.13;;;4.27;;
19589;SDS011;12231;42.782;23.388;2023-02-20T03:33:03;6.37;;;4.40;;
19589;SDS011;12231;42.782;23.388;2023-02-20T03:35:52;6.70;;;4.43;;
19589;SDS011;12231;42.782;23.388;2023-02-20T03:38:38;6.07;;;4.37;;
19589;SDS011;12231;42.782;23.388;2023-02-20T03:41:25;6.57;;;4.30;;
19589;SDS011;12231;42.782;23.388;2023-02-20T03:44:12;6.87;;;4.10;;
19589;SDS011;12231;42.782;23.388;2023-02-20T03:46:40;6.63;;;4.77;;
19589;SDS011;12231;42.782;23.388;2023-02-20T03:49:12;6.70;;;3.97;;
19589;SDS011;12231;42.782;23.388;2023-02-20T03:51:43;5.60;;;4.20;;
19589;SDS011;12231;42.782;23.388;2023-02-20T03:54:24;6.40;;;4.50;;
19589;SDS011;12231;42.782;23.388;2023-02-20T03:56:56;5.53;;;4.20;;
19589;SDS011;12231;42.782;23.388;2023-02-20T03:59:34;6.00;;;4.03;;
19589;SDS011;12231;42.782;23.388;2023-02-20T04:02:17;5.63;;;3.93;;
19589;SDS011;12231;42.782;23.388;2023-02-20T04:04:51;5.07;;;3.93;;
19589;SDS011;12231;42.782;23.388;2023-02-20T04:07:30;5.93;;;4.57;;
19589;SDS011;12231;42.782;23.388;2023-02-20T04:10:01;5.20;;;3.90;;
19589;SDS011;12231;42.782;23.388;2023-02-20T04:12:35;6.47;;;3.90;;
19589;SDS011;12231;42.782;23.388;2023-02-20T04:15:05;5.00;;;3.40;;
19589;SDS011;12231;42.782;23.388;2023-02-20T04:17:51;5.03;;;3.80;;
19589;SDS011;12231;42.782;23.388;2023-02-20T04:20:23;6.37;;;3.73;;
19589;SDS011;12231;42.782;23.388;2023-02-20T04:22:49;5.23;;;3.60;;
19589;SDS011;12231;42.782;23.388;2023-02-20T04:25:24;4.73;;;3.50;;
19589;SDS011;12231;42.782;23.388;2023-02-20T04:28:01;4.30;;;3.00;;
19589;SDS011;12231;42.782;23.388;2023-02-20T04:30:28;3.93;;;3.17;;
19589;SDS011;12231;42.782;23.388;2023-02-20T04:32:53;4.77;;;3.40;;
19589;SDS011;12231;42.782;23.388;2023-02-20T04:35:19;6.17;;;4.30;;
19589;SDS011;12231;42.782;23.388;2023-02-20T04:37:45;6.20;;;3.33;;
19589;SDS011;12231;42.782;23.388;2023-02-20T04:40:12;5.77;;;4.00;;
19589;SDS011;12231;42.782;23.388;2023-02-20T04:42:39;6.00;;;4.07;;
19589;SDS011;12231;42.782;23.388;2023-02-20T04:45:04;6.10;;;4.23;;
19589;SDS011;12231;42.782;23.388;2023-02-20T04:47:30;5.50;;;4.27;;
19589;SDS011;12231;42.782;23.388;2023-02-20T04:49:55;4.83;;;4.20;;
19589;SDS011;12231;42.782;23.388;2023-02-20T04:52:20;5.87;;;4.13;;
19589;SDS011;12231;42.782;23.388;2023-02-20T04:54:48;5.27;;;4.30;;
19589;SDS011;12231;42.782;23.388;2023-02-20T04:57:13;5.43;;;4.07;;
19589;SDS011;12231;42.782;23.388;2023-02-20T04:59:38;5.70;;;4.57;;
19589;SDS011;12231;42.782;23.388;2023-02-20T05:02:04;8.07;;;5.27;;
19589;SDS011;12231;42.782;23.388;2023-02-20T05:04:29;6.50;;;4.47;;
19589;SDS011;12231;42.782;23.388;2023-02-20T05:06:55;18.93;;;9.50;;
19589;SDS011;12231;42.782;23.388;2023-02-20T05:09:21;5.73;;;4.90;;
19589;SDS011;12231;42.782;23.388;2023-02-20T05:11:47;6.27;;;4.27;;
19589;SDS011;12231;42.782;23.388;2023-02-20T05:14:13;6.30;;;3.93;;
19589;SDS011;12231;42.782;23.388;2023-02-20T05:16:39;8.43;;;4.53;;
19589;SDS011;12231;42.782;23.388;2023-02-20T05:19:05;9.00;;;4.10;;
19589;SDS011;12231;42.782;23.388;2023-02-20T05:21:32;8.43;;;5.23;;
19589;SDS011;12231;42.782;23.388;2023-02-20T05:24:17;4.73;;;4.23;;
19589;SDS011;12231;42.782;23.388;2023-02-20T05:26:43;6.93;;;4.77;;
19589;SDS011;12231;42.782;23.388;2023-02-20T05:29:08;6.33;;;4.40;;
19589;SDS011;12231;42.782;23.388;2023-02-20T05:31:36;5.63;;;3.90;;
19589;SDS011;12231;42.782;23.388;2023-02-20T05:34:02;4.03;;;3.20;;
19589;SDS011;12231;42.782;23.388;2023-02-20T05:36:27;7.00;;;4.50;;
19589;SDS011;12231;42.782;23.388;2023-02-20T05:38:53;3.60;;;3.20;;
19589;SDS011;12231;42.782;23.388;2023-02-20T05:41:18;5.00;;;3.70;;
19589;SDS011;12231;42.782;23.388;2023-02-20T05:43:44;4.27;;;3.50;;
19589;SDS011;12231;42.782;23.388;2023-02-20T05:46:10;3.93;;;3.53;;
19589;SDS011;12231;42.782;23.388;2023-02-20T05:48:36;6.73;;;3.97;;
19589;SDS011;12231;42.782;23.388;2023-02-20T05:51:02;4.87;;;3.50;;
19589;SDS011;12231;42.782;23.388;2023-02-20T05:53:28;5.20;;;3.93;;
19589;SDS011;12231;42.782;23.388;2023-02-20T05:55:54;5.33;;;4.10;;
19589;SDS011;12231;42.782;23.388;2023-02-20T05:58:20;5.70;;;3.80;;
19589;SDS011;12231;42.782;23.388;2023-02-20T06:00:45;7.60;;;3.63;;
19589;SDS011;12231;42.782;23.388;2023-02-20T06:03:12;5.83;;;4.77;;
19589;SDS011;12231;42.782;23.388;2023-02-20T06:05:39;6.40;;;5.03;;
19589;SDS011;12231;42.782;23.388;2023-02-20T06:08:04;7.87;;;6.00;;
19589;SDS011;12231;42.782;23.388;2023-02-20T06:10:30;9.27;;;5.80;;
19589;SDS011;12231;42.782;23.388;2023-02-20T06:12:55;7.23;;;5.37;;
19589;SDS011;12231;42.782;23.388;2023-02-20T06:15:21;11.43;;;6.87;;
19589;SDS011;12231;42.782;23.388;2023-02-20T06:17:46;8.10;;;5.87;;
19589;SDS011;12231;42.782;23.388;2023-02-20T06:20:11;9.47;;;6.17;;
19589;SDS011;12231;42.782;23.388;2023-02-20T06:22:37;7.50;;;5.50;;
19589;SDS011;12231;42.782;23.388;2023-02-20T06:25:02;6.07;;;4.90;;
19589;SDS011;12231;42.782;23.388;2023-02-20T06:27:28;7.87;;;5.87;;
19589;SDS011;12231;42.782;23.388;2023-02-20T06:29:53;8.70;;;5.63;;
19589;SDS011;12231;42.782;23.388;2023-02-20T06:32:19;4.90;;;4.40;;
19589;SDS011;12231;42.782;23.388;2023-02-20T06:34:44;5.00;;;4.40;;
19589;SDS011;12231;42.782;23.388;2023-02-20T06:37:09;6.70;;;4.40;;
19589;SDS011;12231;42.782;23.388;2023-02-20T06:39:35;5.40;;;4.23;;
19589;SDS011;12231;42.782;23.388;2023-02-20T06:42:01;6.10;;;4.97;;
19589;SDS011;12231;42.782;23.388;2023-02-20T06:44:27;5.63;;;4.67;;
19589;SDS011;12231;42.782;23.388;2023-02-20T06:46:53;7.33;;;5.10;;
19589;SDS011;12231;42.782;23.388;2023-02-20T06:49:19;6.20;;;4.73;;
19589;SDS011;12231;42.782;23.388;2023-02-20T06:51:44;6.53;;;4.20;;
19589;SDS011;12231;42.782;23.388;2023-02-20T06:54:10;4.83;;;4.33;;
19589;SDS011;12231;42.782;23.388;2023-02-20T06:56:36;6.27;;;4.37;;
19589;SDS011;12231;42.782;23.388;2023-02-20T06:59:03;5.23;;;4.30;;
19589;SDS011;12231;42.782;23.388;2023-02-20T07:01:35;4.50;;;4.10;;
19589;SDS011;12231;42.782;23.388;2023-02-20T07:04:05;5.33;;;4.20;;
19589;SDS011;12231;42.782;23.388;2023-02-20T07:06:32;4.87;;;4.17;;
19589;SDS011;12231;42.782;23.388;2023-02-20T07:08:57;8.20;;;4.33;;
19589;SDS011;12231;42.782;23.388;2023-02-20T07:11:22;5.33;;;4.30;;
19589;SDS011;12231;42.782;23.388;2023-02-20T07:13:49;4.90;;;4.40;;
19589;SDS011;12231;42.782;23.388;2023-02-20T07:16:15;5.97;;;4.83;;
19589;SDS011;12231;42.782;23.388;2023-02-20T07:18:41;5.87;;;4.37;;
19589;SDS011;12231;42.782;23.388;2023-02-20T07:21:06;5.30;;;3.97;;
19589;SDS011;12231;42.782;23.388;2023-02-20T07:23:32;5.68;;;4.30;;
19589;SDS011;12231;42.782;23.388;2023-02-20T07:25:57;3.78;;;3.47;;
19589;SDS011;12231;42.782;23.388;2023-02-20T07:28:22;4.60;;;3.70;;
19589;SDS011;12231;42.782;23.388;2023-02-20T07:30:48;4.85;;;3.65;;
19589;SDS011;12231;42.782;23.388;2023-02-20T07:33:14;6.90;;;3.97;;
19589;SDS011;12231;42.782;23.388;2023-02-20T07:35:40;4.17;;;3.20;;
19589;SDS011;12231;42.782;23.388;2023-02-20T07:38:06;6.40;;;3.97;;
19589;SDS011;12231;42.782;23.388;2023-02-20T07:40:31;4.37;;;3.30;;
19589;SDS011;12231;42.782;23.388;2023-02-20T07:42:57;7.07;;;3.47;;
19589;SDS011;12231;42.782;23.388;2023-02-20T07:45:22;3.43;;;2.80;;
19589;SDS011;12231;42.782;23.388;2023-02-20T07:47:48;3.97;;;2.67;;
19589;SDS011;12231;42.782;23.388;2023-02-20T07:50:14;3.25;;;2.67;;
19589;SDS011;12231;42.782;23.388;2023-02-20T07:52:41;3.75;;;2.60;;
19589;SDS011;12231;42.782;23.388;2023-02-20T07:55:06;2.85;;;2.17;;
19589;SDS011;12231;42.782;23.388;2023-02-20T07:57:32;2.90;;;2.00;;
19589;SDS011;12231;42.782;23.388;2023-02-20T08:00:00;4.88;;;2.30;;
19589;SDS011;12231;42.782;23.388;2023-02-20T08:02:25;3.40;;;2.00;;
19589;SDS011;12231;42.782;23.388;2023-02-20T08:04:50;5.40;;;3.67;;
19589;SDS011;12231;42.782;23.388;2023-02-20T08:07:16;3.20;;;2.20;;
19589;SDS011;12231;42.782;23.388;2023-02-20T08:09:41;3.13;;;2.35;;
19589;SDS011;12231;42.782;23.388;2023-02-20T08:12:07;2.42;;;1.88;;
19589;SDS011;12231;42.782;23.388;2023-02-20T08:14:32;3.88;;;2.60;;
19589;SDS011;12231;42.782;23.388;2023-02-20T08:16:57;3.08;;;1.80;;
19589;SDS011;12231;42.782;23.388;2023-02-20T08:19:23;2.20;;;2.00;;
19589;SDS011;12231;42.782;23.388;2023-02-20T08:21:48;3.85;;;2.40;;
19589;SDS011;12231;42.782;23.388;2023-02-20T08:24:13;5.18;;;2.03;;
19589;SDS011;12231;42.782;23.388;2023-02-20T08:26:46;2.10;;;1.70;;
19589;SDS011;12231;42.782;23.388;2023-02-20T08:29:12;1.60;;;1.50;;
19589;SDS011;12231;42.782;23.388;2023-02-20T08:31:39;1.90;;;1.48;;
19589;SDS011;12231;42.782;23.388;2023-02-20T08:34:05;1.92;;;1.70;;
19589;SDS011;12231;42.782;23.388;2023-02-20T08:36:30;3.08;;;2.17;;
19589;SDS011;12231;42.782;23.388;2023-02-20T08:38:55;4.68;;;1.52;;
19589;SDS011;12231;42.782;23.388;2023-02-20T08:41:21;1.90;;;1.52;;
19589;SDS011;12231;42.782;23.388;2023-02-20T08:43:47;2.60;;;1.45;;
19589;SDS011;12231;42.782;23.388;2023-02-20T08:46:12;3.92;;;1.33;;
19589;SDS011;12231;42.782;23.388;2023-02-20T08:48:38;2.97;;;1.52;;
19589;SDS011;12231;42.782;23.388;2023-02-20T08:51:04;3.40;;;1.60;;
19589;SDS011;12231;42.782;23.388;2023-02-20T08:53:30;2.20;;;1.80;;
19589;SDS011;12231;42.782;23.388;2023-02-20T08:55:56;2.20;;;1.60;;
19589;SDS011;12231;42.782;23.388;2023-02-20T08:58:22;2.38;;;1.92;;
19589;SDS011;12231;42.782;23.388;2023-02-20T09:00:49;2.65;;;1.17;;
19589;SDS011;12231;42.782;23.388;2023-02-20T09:03:14;1.50;;;1.30;;
19589;SDS011;12231;42.782;23.388;2023-02-20T09:05:40;2.97;;;1.48;;
19589;SDS011;12231;42.782;23.388;2023-02-20T09:08:06;1.60;;;1.50;;
19589;SDS011;12231;42.782;23.388;2023-02-20T09:10:32;3.47;;;1.17;;
19589;SDS011;12231;42.782;23.388;2023-02-20T09:12:57;7.32;;;1.38;;
19589;SDS011;12231;42.782;23.388;2023-02-20T09:15:23;1.45;;;1.30;;
19589;SDS011;12231;42.782;23.388;2023-02-20T09:17:49;2.38;;;1.40;;
19589;SDS011;12231;42.782;23.388;2023-02-20T09:20:16;1.02;;;1.00;;
19589;SDS011;12231;42.782;23.388;2023-02-20T09:22:44;2.65;;;0.80;;
19589;SDS011;12231;42.782;23.388;2023-02-20T09:25:10;1.08;;;0.95;;
19589;SDS011;12231;42.782;23.388;2023-02-20T09:27:36;1.23;;;1.00;;
19589;SDS011;12231;42.782;23.388;2023-02-20T09:30:02;0.73;;;0.73;;
19589;SDS011;12231;42.782;23.388;2023-02-20T09:32:28;2.10;;;0.73;;
19589;SDS011;12231;42.782;23.388;2023-02-20T09:34:53;1.02;;;0.90;;
19589;SDS011;12231;42.782;23.388;2023-02-20T09:37:19;0.73;;;0.73;;
19589;SDS011;12231;42.782;23.388;2023-02-20T09:39:44;0.88;;;0.88;;
19589;SDS011;12231;42.782;23.388;2023-02-20T09:42:26;1.00;;;1.00;;
19589;SDS011;12231;42.782;23.388;2023-02-20T09:45:13;1.42;;;0.82;;
19589;SDS011;12231;42.782;23.388;2023-02-20T09:50:35;0.68;;;0.68;;
19589;SDS011;12231;42.782;23.388;2023-02-20T09:56:10;1.40;;;1.10;;
19589;SDS011;12231;42.782;23.388;2023-02-20T09:58:48;1.17;;;1.00;;
19589;SDS011;12231;42.782;23.388;2023-02-20T10:01:23;2.17;;;0.90;;
19589;SDS011;12231;42.782;23.388;2023-02-20T10:06:27;1.75;;;0.95;;
19589;SDS011;12231;42.782;23.388;2023-02-20T10:08:54;0.90;;;0.90;;
19589;SDS011;12231;42.782;23.388;2023-02-20T10:22:41;1.60;;;0.90;;
19589;SDS011;12231;42.782;23.388;2023-02-20T10:25:33;1.90;;;1.13;;
19589;SDS011;12231;42.782;23.388;2023-02-20T10:28:04;1.77;;;1.00;;
19589;SDS011;12231;42.782;23.388;2023-02-20T10:30:40;0.90;;;0.90;;
19589;SDS011;12231;42.782;23.388;2023-02-20T10:33:23;1.30;;;1.02;;
19589;SDS011;12231;42.782;23.388;2023-02-20T10:35:57;1.48;;;1.08;;
19589;SDS011;12231;42.782;23.388;2023-02-20T10:39:09;1.80;;;1.40;;
19589;SDS011;12231;42.782;23.388;2023-02-20T10:44:38;3.08;;;1.23;;
19589;SDS011;12231;42.782;23.388;2023-02-20T10:50:22;1.30;;;1.08;;
19589;SDS011;12231;42.782;23.388;2023-02-20T10:55:51;1.85;;;1.10;;
19589;SDS011;12231;42.782;23.388;2023-02-20T10:58:38;0.95;;;0.90;;
19589;SDS011;12231;42.782;23.388;2023-02-20T11:01:10;1.75;;;1.00;;
19589;SDS011;12231;42.782;23.388;2023-02-20T11:03:41;1.00;;;1.00;;
19589;SDS011;12231;42.782;23.388;2023-02-20T11:06:12;1.52;;;1.42;;
19589;SDS011;12231;42.782;23.388;2023-02-20T11:08:40;1.55;;;1.30;;
19589;SDS011;12231;42.782;23.388;2023-02-20T11:11:20;1.00;;;0.90;;
19589;SDS011;12231;42.782;23.388;2023-02-20T11:13:48;4.35;;;1.10;;
19589;SDS011;12231;42.782;23.388;2023-02-20T11:16:20;1.05;;;1.05;;
19589;SDS011;12231;42.782;23.388;2023-02-20T11:18:55;5.32;;;1.40;;
19589;SDS011;12231;42.782;23.388;2023-02-20T11:21:57;1.27;;;1.17;;
19589;SDS011;12231;42.782;23.388;2023-02-20T11:24:35;2.35;;;1.70;;
19589;SDS011;12231;42.782;23.388;2023-02-20T11:29:39;1.95;;;1.60;;
19589;SDS011;12231;42.782;23.388;2023-02-20T11:32:41;2.05;;;1.60;;
19589;SDS011;12231;42.782;23.388;2023-02-20T11:35:05;2.90;;;1.40;;
19589;SDS011;12231;42.782;23.388;2023-02-20T11:37:42;4.45;;;2.20;;
19589;SDS011;12231;42.782;23.388;2023-02-20T11:40:41;2.80;;;1.60;;
19589;SDS011;12231;42.782;23.388;2023-02-20T11:45:38;1.48;;;1.00;;
19589;SDS011;12231;42.782;23.388;2023-02-20T11:48:14;2.30;;;1.70;;
19589;SDS011;12231;42.782;23.388;2023-02-20T11:55:44;9.00;;;4.32;;
19589;SDS011;12231;42.782;23.388;2023-02-20T11:58:20;4.35;;;2.40;;
19589;SDS011;12231;42.782;23.388;2023-02-20T12:00:48;4.22;;;2.10;;
19589;SDS011;12231;42.782;23.388;2023-02-20T12:03:20;0.90;;;0.90;;
19589;SDS011;12231;42.782;23.388;2023-02-20T12:05:52;2.00;;;1.80;;
19589;SDS011;12231;42.782;23.388;2023-02-20T12:10:59;3.60;;;1.63;;
19589;SDS011;12231;42.782;23.388;2023-02-20T12:13:29;3.47;;;2.17;;
19589;SDS011;12231;42.782;23.388;2023-02-20T12:27:13;2.10;;;1.90;;
19589;SDS011;12231;42.782;23.388;2023-02-20T12:32:49;4.50;;;1.65;;
19589;SDS011;12231;42.782;23.388;2023-02-20T12:43:49;2.08;;;1.48;;
19589;SDS011;12231;42.782;23.388;2023-02-20T12:46:35;2.42;;;1.27;;
19589;SDS011;12231;42.782;23.388;2023-02-20T12:54:38;2.10;;;1.27;;
19589;SDS011;12231;42.782;23.388;2023-02-20T12:59:56;0.80;;;0.80;;
19589;SDS011;12231;42.782;23.388;2023-02-20T13:04:59;1.20;;;1.10;;
19589;SDS011;12231;42.782;23.388;2023-02-20T13:12:54;1.10;;;0.70;;
19589;SDS011;12231;42.782;23.388;2023-02-20T13:15:24;1.02;;;1.02;;
19589;SDS011;12231;42.782;23.388;2023-02-20T13:18:01;0.95;;;0.82;;
19589;SDS011;12231;42.782;23.388;2023-02-20T13:20:45;1.13;;;0.70;;
19589;SDS011;12231;42.782;23.388;2023-02-20T13:25:43;3.38;;;0.80;;
19589;SDS011;12231;42.782;23.388;2023-02-20T13:30:44;0.50;;;0.50;;
19589;SDS011;12231;42.782;23.388;2023-02-20T13:33:17;1.27;;;0.73;;
19589;SDS011;12231;42.782;23.388;2023-02-20T13:38:17;0.88;;;0.85;;
19589;SDS011;12231;42.782;23.388;2023-02-20T13:53:48;1.58;;;1.48;;
19589;SDS011;12231;42.782;23.388;2023-02-20T13:56:31;2.75;;;1.13;;
19589;SDS011;12231;42.782;23.388;2023-02-20T13:59:11;1.33;;;1.23;;
19589;SDS011;12231;42.782;23.388;2023-02-20T14:04:20;0.77;;;0.77;;
19589;SDS011;12231;42.782;23.388;2023-02-20T14:06:50;0.75;;;0.75;;
19589;SDS011;12231;42.782;23.388;2023-02-20T14:09:19;0.80;;;0.80;;
19589;SDS011;12231;42.782;23.388;2023-02-20T14:11:48;1.45;;;0.98;;
19589;SDS011;12231;42.782;23.388;2023-02-20T14:14:29;1.65;;;1.10;;
19589;SDS011;12231;42.782;23.388;2023-02-20T14:17:02;1.83;;;1.15;;
19589;SDS011;12231;42.782;23.388;2023-02-20T14:19:29;3.38;;;1.50;;
19589;SDS011;12231;42.782;23.388;2023-02-20T14:21:55;1.50;;;1.00;;
19589;SDS011;12231;42.782;23.388;2023-02-20T14:24:25;3.78;;;0.85;;
19589;SDS011;12231;42.782;23.388;2023-02-20T14:26:53;8.98;;;2.13;;
19589;SDS011;12231;42.782;23.388;2023-02-20T14:31:51;2.95;;;1.83;;
19589;SDS011;12231;42.782;23.388;2023-02-20T14:34:21;7.22;;;5.45;;
19589;SDS011;12231;42.782;23.388;2023-02-20T14:37:16;3.30;;;3.00;;
19589;SDS011;12231;42.782;23.388;2023-02-20T14:42:32;5.75;;;4.10;;
19589;SDS011;12231;42.782;23.388;2023-02-20T14:45:04;2.50;;;1.80;;
19589;SDS011;12231;42.782;23.388;2023-02-20T14:47:32;1.55;;;1.40;;
19589;SDS011;12231;42.782;23.388;2023-02-20T14:53:08;1.98;;;1.10;;
19589;SDS011;12231;42.782;23.388;2023-02-20T14:55:42;3.53;;;2.95;;
19589;SDS011;12231;42.782;23.388;2023-02-20T14:58:16;1.17;;;1.10;;
19589;SDS011;12231;42.782;23.388;2023-02-20T15:00:44;0.93;;;0.87;;
19589;SDS011;12231;42.782;23.388;2023-02-20T15:03:24;1.00;;;1.00;;
19589;SDS011;12231;42.782;23.388;2023-02-20T15:05:52;2.23;;;2.03;;
19589;SDS011;12231;42.782;23.388;2023-02-20T15:10:50;2.90;;;1.90;;
19589;SDS011;12231;42.782;23.388;2023-02-20T15:13:24;2.47;;;1.30;;
19589;SDS011;12231;42.782;23.388;2023-02-20T15:16:03;1.00;;;0.83;;
19589;SDS011;12231;42.782;23.388;2023-02-20T15:20:59;2.37;;;1.70;;
19589;SDS011;12231;42.782;23.388;2023-02-20T15:25:58;7.70;;;3.60;;
19589;SDS011;12231;42.782;23.388;2023-02-20T15:28:43;7.87;;;3.83;;
19589;SDS011;12231;42.782;23.388;2023-02-20T15:33:35;10.57;;;7.67;;
19589;SDS011;12231;42.782;23.388;2023-02-20T15:36:03;4.00;;;2.47;;
19589;SDS011;12231;42.782;23.388;2023-02-20T15:38:33;2.70;;;1.90;;
19589;SDS011;12231;42.782;23.388;2023-02-20T15:41:00;1.80;;;1.53;;
19589;SDS011;12231;42.782;23.388;2023-02-20T15:43:27;1.80;;;1.50;;
19589;SDS011;12231;42.782;23.388;2023-02-20T15:45:53;2.23;;;1.50;;
19589;SDS011;12231;42.782;23.388;2023-02-20T15:48:19;5.83;;;1.90;;
19589;SDS011;12231;42.782;23.388;2023-02-20T15:50:45;3.20;;;2.10;;
19589;SDS011;12231;42.782;23.388;2023-02-20T15:53:17;3.20;;;2.00;;
19589;SDS011;12231;42.782;23.388;2023-02-20T15:55:48;6.93;;;4.00;;
19589;SDS011;12231;42.782;23.388;2023-02-20T15:58:20;4.10;;;1.90;;
19589;SDS011;12231;42.782;23.388;2023-02-20T16:00:48;3.97;;;3.00;;
19589;SDS011;12231;42.782;23.388;2023-02-20T16:03:14;6.47;;;4.13;;
19589;SDS011;12231;42.782;23.388;2023-02-20T16:05:40;5.37;;;3.87;;
19589;SDS011;12231;42.782;23.388;2023-02-20T16:08:05;8.87;;;4.90;;
19589;SDS011;12231;42.782;23.388;2023-02-20T16:10:30;10.00;;;4.57;;
19589;SDS011;12231;42.782;23.388;2023-02-20T16:12:56;9.40;;;4.37;;
19589;SDS011;12231;42.782;23.388;2023-02-20T16:15:24;30.57;;;16.03;;
19589;SDS011;12231;42.782;23.388;2023-02-20T16:17:50;6.77;;;4.43;;
19589;SDS011;12231;42.782;23.388;2023-02-20T16:20:17;5.93;;;2.80;;
19589;SDS011;12231;42.782;23.388;2023-02-20T16:22:53;4.20;;;2.70;;
19589;SDS011;12231;42.782;23.388;2023-02-20T16:25:20;8.73;;;5.00;;
19589;SDS011;12231;42.782;23.388;2023-02-20T16:27:46;13.73;;;8.30;;
19589;SDS011;12231;42.782;23.388;2023-02-20T16:30:36;10.00;;;5.83;;
19589;SDS011;12231;42.782;23.388;2023-02-20T16:33:11;13.67;;;6.27;;
19589;SDS011;12231;42.782;23.388;2023-02-20T16:35:40;36.67;;;18.33;;
19589;SDS011;12231;42.782;23.388;2023-02-20T16:38:06;23.40;;;10.43;;
19589;SDS011;12231;42.782;23.388;2023-02-20T16:40:32;25.80;;;14.53;;
19589;SDS011;12231;42.782;23.388;2023-02-20T16:42:57;20.50;;;10.97;;
19589;SDS011;12231;42.782;23.388;2023-02-20T16:45:22;22.60;;;13.07;;
19589;SDS011;12231;42.782;23.388;2023-02-20T16:47:49;24.27;;;14.13;;
19589;SDS011;12231;42.782;23.388;2023-02-20T16:50:18;23.07;;;13.03;;
19589;SDS011;12231;42.782;23.388;2023-02-20T16:52:47;21.97;;;13.63;;
19589;SDS011;12231;42.782;23.388;2023-02-20T16:55:23;33.17;;;18.33;;
19589;SDS011;12231;42.782;23.388;2023-02-20T16:57:53;12.43;;;7.37;;
19589;SDS011;12231;42.782;23.388;2023-02-20T17:00:20;12.70;;;8.53;;
19589;SDS011;12231;42.782;23.388;2023-02-20T17:02:50;10.67;;;5.20;;
19589;SDS011;12231;42.782;23.388;2023-02-20T17:05:18;9.37;;;5.23;;
19589;SDS011;12231;42.782;23.388;2023-02-20T17:07:48;9.57;;;5.27;;
19589;SDS011;12231;42.782;23.388;2023-02-20T17:10:15;6.90;;;4.37;;
19589;SDS011;12231;42.782;23.388;2023-02-20T17:12:41;8.60;;;4.63;;